Time;durP1;ratioP1;P1;durP2;ratioP2;P2;SDS_P1;SDS_P2;PMS_P1;PMS_P2;Temp;Humidity;BMP_temperature;BMP_pressure;BME280_temperature;BME280_humidity;BME280_pressure;Samples;Min_cycle;Max_cycle;Signal;HPM_P1;HPM_P2
2024/04/13 00:00:59;;;;;;;32.83;30.73;;;;;;;13.88;100.00;101978.72;5566127;25;20930;-83
2024/04/13 00:03:26;;;;;;;32.78;30.58;;;;;;;13.84;100.00;101977.47;5563003;25;20867;-82
2024/04/13 00:05:57;;;;;;;34.63;32.00;;;;;;;13.64;100.00;101980.00;5565404;25;20001;-82
2024/04/13 00:08:29;;;;;;;33.53;30.92;;;;;;;13.69;100.00;101985.59;5562001;25;20009;-82
2024/04/13 00:10:58;;;;;;;29.27;27.17;;;;;;;13.71;100.00;101986.25;5565156;25;20000;-82
2024/04/13 00:13:24;;;;;;;29.45;27.25;;;;;;;13.64;100.00;101978.16;5562874;25;19996;-83
2024/04/13 00:15:57;;;;;;;29.08;26.88;;;;;;;13.78;100.00;101988.94;5559353;25;20083;-82
2024/04/13 00:18:24;;;;;;;33.78;31.35;;;;;;;13.72;100.00;101971.88;5562700;25;20011;-82
2024/04/13 00:20:53;;;;;;;33.80;31.30;;;;;;;13.63;100.00;101965.84;5564994;25;20014;-82
2024/04/13 00:23:19;;;;;;;28.75;26.58;;;;;;;13.55;100.00;101965.16;5562994;25;20075;-82
2024/04/13 00:25:51;;;;;;;30.23;27.92;;;;;;;13.34;100.00;101972.19;5565077;25;20020;-82
2024/04/13 00:28:17;;;;;;;29.88;27.70;;;;;;;13.35;100.00;101952.53;5562248;25;20012;-83
2024/04/13 00:30:46;;;;;;;28.55;26.45;;;;;;;13.44;100.00;101948.69;5564755;25;20008;-82
2024/04/13 00:33:13;;;;;;;29.52;27.30;;;;;;;13.54;100.00;101952.84;5561810;25;19996;-82
2024/04/13 00:35:42;;;;;;;30.85;28.55;;;;;;;13.35;100.00;101952.53;5565266;25;20001;-83
2024/04/13 00:38:09;;;;;;;30.20;27.90;;;;;;;13.37;100.00;101942.47;5562753;25;20001;-76
2024/04/13 00:40:37;;;;;;;30.55;28.25;;;;;;;13.46;100.00;101943.13;5564419;25;20000;-76
2024/04/13 00:43:10;;;;;;;30.52;28.20;;;;;;;13.52;100.00;101953.88;5561850;25;19996;-76
2024/04/13 00:45:45;;;;;;;33.10;30.60;;;;;;;13.80;100.00;101953.03;5564478;25;19996;-76
2024/04/13 00:48:12;;;;;;;33.58;31.38;;;;;;;13.88;100.00;101947.50;5561813;25;20013;-76
2024/04/13 00:50:42;;;;;;;32.97;30.48;;;;;;;13.62;100.00;101945.53;5564296;25;20626;-76
2024/04/13 00:53:11;;;;;;;31.17;28.77;;;;;;;13.46;100.00;101945.81;5532317;25;20012;-76
2024/04/13 00:55:40;;;;;;;31.48;29.08;;;;;;;13.87;100.00;101945.88;5564889;25;19997;-75
2024/04/13 00:58:11;;;;;;;31.33;28.92;;;;;;;13.93;100.00;101957.59;5561597;25;20456;-75
2024/04/13 01:00:40;;;;;;;33.00;30.50;;;;;;;13.57;100.00;101947.94;5563805;25;20001;-75
2024/04/13 01:03:08;;;;;;;32.15;29.73;;;;;;;13.77;100.00;101949.91;5561644;25;20015;-76
2024/04/13 01:05:38;;;;;;;31.35;28.95;;;;;;;14.11;100.00;101946.38;5564123;25;20000;-76
2024/04/13 01:08:05;;;;;;;31.15;28.83;;;;;;;14.09;100.00;101949.25;5561183;25;19997;-76
2024/04/13 01:10:34;;;;;;;31.63;29.20;;;;;;;13.88;100.00;101941.34;5564591;25;20001;-76
2024/04/13 01:13:00;;;;;;;34.50;31.90;;;;;;;13.94;100.00;101930.69;5561465;25;20860;-76
2024/04/13 01:15:32;;;;;;;40.30;37.35;;;;;;;13.79;100.00;101927.31;5557755;25;20001;-76
2024/04/13 01:17:58;;;;;;;40.97;37.97;;;;;;;13.77;100.00;101929.38;5561961;25;19996;-82
2024/04/13 01:20:27;;;;;;;39.97;36.92;;;;;;;13.95;100.00;101924.34;5564139;25;20318;-82
2024/04/13 01:22:56;;;;;;;35.22;32.53;;;;;;;13.99;100.00;101924.75;5562162;25;20728;-82
2024/04/13 01:25:27;;;;;;;31.67;29.27;;;;;;;13.73;100.00;101933.44;5552270;25;19998;-82
2024/04/13 01:27:56;;;;;;;29.50;27.20;;;;;;;13.71;100.00;101935.50;5524588;26;20009;-76
2024/04/13 01:30:25;;;;;;;32.97;30.48;;;;;;;13.50;100.00;101931.06;5527803;25;20041;-83
2024/04/13 01:32:51;;;;;;;29.83;27.52;;;;;;;13.83;100.00;101923.25;5561946;25;20041;-83
2024/04/13 01:35:21;;;;;;;34.92;32.25;;;;;;;13.90;100.00;101923.28;5564336;25;19997;-82
2024/04/13 01:37:47;;;;;;;34.25;31.65;;;;;;;13.72;100.00;101918.47;5561724;25;20433;-76
2024/04/13 01:40:16;;;;;;;41.08;38.20;;;;;;;13.90;100.00;101921.44;5563901;25;20001;-76
2024/04/13 01:42:45;;;;;;;41.55;38.75;;;;;;;14.09;100.00;101917.19;5556820;25;19996;-82
2024/04/13 01:45:14;;;;;;;42.67;39.88;;;;;;;14.30;100.00;101921.56;5525782;25;20004;-76
2024/04/13 01:47:41;;;;;;;48.45;45.10;;;;;;;14.51;100.00;101917.97;5523192;26;20002;-76
2024/04/13 01:50:12;;;;;;;53.92;50.85;;;;;;;14.65;100.00;101919.63;5562215;25;20028;-76
2024/04/13 01:52:38;;;;;;;42.05;37.88;;;;;;;14.80;100.00;101907.94;5560445;25;19997;-76
2024/04/13 01:55:07;;;;;;;42.13;39.55;;;;;;;14.84;100.00;101904.63;5562637;25;20011;-76
2024/04/13 01:57:33;;;;;;;44.03;41.63;;;;;;;14.92;100.00;101913.47;5560630;25;20070;-77
2024/04/13 02:00:06;;;;;;;43.10;40.70;;;;;;;14.86;100.00;101910.59;5563102;25;19996;-76
2024/04/13 02:02:32;;;;;;;44.90;42.50;;;;;;;14.73;100.00;101910.56;5560364;25;20093;-76
2024/04/13 02:05:05;;;;;;;49.28;46.42;;;;;;;14.81;100.00;101905.03;5561981;25;20011;-76
2024/04/13 02:07:33;;;;;;;53.63;50.63;;;;;;;14.71;100.00;101907.31;5560263;25;19996;-76
2024/04/13 02:10:02;;;;;;;47.50;44.95;;;;;;;14.76;100.00;101909.34;5563246;25;20007;-76
2024/04/13 02:12:29;;;;;;;44.95;42.55;;;;;;;14.79;100.00;101911.59;5561027;25;19997;-76
2024/04/13 02:14:57;;;;;;;49.45;46.65;;;;;;;14.79;100.00;101904.41;5555244;25;20007;-76
2024/04/13 02:17:27;;;;;;;46.13;43.75;;;;;;;14.81;100.00;101906.88;5560733;25;20001;-76
2024/04/13 02:19:56;;;;;;;42.90;40.60;;;;;;;14.78;100.00;101905.44;5563117;25;20444;-76
2024/04/13 02:22:24;;;;;;;42.35;40.05;;;;;;;14.76;100.00;101902.13;5560260;25;20726;-76
2024/04/13 02:24:52;;;;;;;50.58;46.20;;;;;;;14.70;100.00;101902.97;5563348;25;20019;-76
2024/04/13 02:27:19;;;;;;;43.88;41.50;;;;;;;14.66;100.00;101910.56;5560918;25;20336;-76
2024/04/13 02:29:50;;;;;;;45.92;43.42;;;;;;;14.61;100.00;101906.84;5563214;25;19997;-76
2024/04/13 02:32:16;;;;;;;48.10;45.70;;;;;;;14.72;100.00;101905.44;5559858;25;20466;-76
2024/04/13 02:34:48;;;;;;;41.95;39.75;;;;;;;14.85;100.00;101897.41;5562358;25;20049;-76
2024/04/13 02:37:17;;;;;;;43.03;40.83;;;;;;;14.82;100.00;101904.00;5558974;25;20011;-76
2024/04/13 02:39:46;;;;;;;44.95;42.08;;;;;;;14.68;100.00;101902.38;5561611;25;20011;-76
2024/04/13 02:42:12;;;;;;;39.47;37.38;;;;;;;14.76;100.00;101912.03;5559535;25;20001;-76
2024/04/13 02:44:41;;;;;;;44.13;41.90;;;;;;;14.72;100.00;101910.78;5563181;25;19996;-82
2024/04/13 02:47:07;;;;;;;36.00;34.00;;;;;;;14.74;100.00;101917.59;5559957;25;20011;-82
2024/04/13 02:49:36;;;;;;;40.83;38.72;;;;;;;14.79;100.00;101919.63;5562911;25;20004;-82
2024/04/13 02:52:05;;;;;;;39.80;37.75;;;;;;;14.77;100.00;101916.38;5559991;25;20088;-82
2024/04/13 02:54:34;;;;;;;37.28;35.28;;;;;;;14.76;100.00;101918.19;5562618;25;20022;-82
2024/04/13 02:57:02;;;;;;;38.47;36.47;;;;;;;14.75;100.00;101921.09;5560338;25;20001;-83
2024/04/13 02:59:31;;;;;;;35.63;33.72;;;;;;;14.62;100.00;101917.38;5561776;25;20072;-82
2024/04/13 03:02:00;;;;;;;39.15;37.15;;;;;;;14.58;100.00;101925.97;5559160;25;19997;-82
2024/04/13 03:04:28;;;;;;;39.47;37.47;;;;;;;14.58;100.00;101920.63;5561768;25;19997;-82
2024/04/13 03:06:55;;;;;;;45.13;42.83;;;;;;;14.36;100.00;101920.75;5558353;25;20000;-82
2024/04/13 03:09:26;;;;;;;39.03;36.83;;;;;;;14.10;100.00;101920.66;5561015;25;20072;-82
2024/04/13 03:11:53;;;;;;;39.40;37.10;;;;;;;14.00;100.00;101918.38;5558348;25;19996;-82
2024/04/13 03:14:22;;;;;;;41.17;38.78;;;;;;;14.06;100.00;101914.09;5561611;25;19993;-82
2024/04/13 03:16:48;;;;;;;36.22;34.10;;;;;;;14.05;100.00;101915.13;5549930;25;19997;-83
2024/04/13 03:19:18;;;;;;;35.08;33.08;;;;;;;14.03;100.00;101919.84;5562037;25;20397;-82
2024/04/13 03:21:46;;;;;;;38.08;35.88;;;;;;;14.06;100.00;101917.59;5558699;25;20041;-83
2024/04/13 03:24:15;;;;;;;38.55;36.15;;;;;;;13.69;100.00;101925.03;5561561;25;20001;-83
2024/04/13 03:26:47;;;;;;;34.58;32.53;;;;;;;13.73;100.00;101928.94;5558991;25;20013;-82
2024/04/13 03:29:14;;;;;;;35.00;32.80;;;;;;;13.70;100.00;101933.84;5559077;25;20095;-82
2024/04/13 03:31:45;;;;;;;33.08;30.77;;;;;;;13.67;100.00;101927.06;5561306;25;20009;-83
2024/04/13 03:34:11;;;;;;;33.38;31.30;;;;;;;13.77;100.00;101936.53;5558650;25;20005;-83
2024/04/13 03:36:41;;;;;;;38.88;36.67;;;;;;;13.86;100.00;101943.41;5561476;25;20001;-83
2024/04/13 03:39:10;;;;;;;36.55;34.45;;;;;;;13.82;100.00;101929.59;5559178;25;20485;-83
2024/04/13 03:41:39;;;;;;;32.40;30.40;;;;;;;13.83;100.00;101941.94;5558385;25;20806;-83
2024/04/13 03:44:09;;;;;;;31.77;29.83;;;;;;;13.82;100.00;101939.47;5559014;25;20007;-83
2024/04/13 03:46:38;;;;;;;31.38;29.38;;;;;;;13.47;100.00;101936.81;5560713;25;20011;-82
2024/04/13 03:49:04;;;;;;;29.70;27.90;;;;;;;13.54;100.00;101940.34;5554547;25;20793;-83
2024/04/13 03:51:33;;;;;;;31.98;30.08;;;;;;;13.54;100.00;101936.84;5524175;26;20002;-76
2024/04/13 03:53:59;;;;;;;32.47;29.80;;;;;;;13.24;100.00;101940.50;5549445;25;20398;-76
2024/04/13 03:56:28;;;;;;;31.00;29.08;;;;;;;13.34;100.00;101947.38;5561286;25;20015;-76
2024/04/13 03:58:54;;;;;;;28.50;26.70;;;;;;;13.55;100.00;101949.16;5555258;25;20016;-76
2024/04/13 04:01:26;;;;;;;29.88;27.92;;;;;;;13.55;100.00;101949.16;5543570;25;20025;-75
2024/04/13 04:03:53;;;;;;;29.20;27.40;;;;;;;13.59;100.00;101956.59;5544424;25;20001;-76
2024/04/13 04:06:22;;;;;;;28.90;27.10;;;;;;;13.58;100.00;101962.13;5546917;25;20013;-76
2024/04/13 04:08:49;;;;;;;29.60;27.58;;;;;;;13.63;100.00;101955.16;5533138;25;19996;-78
2024/04/13 04:11:18;;;;;;;27.73;26.00;;;;;;;13.65;100.00;101960.34;5548463;25;20033;-76
2024/04/13 04:13:44;;;;;;;27.77;25.98;;;;;;;13.63;100.00;101959.69;5536799;25;20488;-76
2024/04/13 04:16:17;;;;;;;28.98;26.92;;;;;;;13.89;100.00;101962.53;5537966;25;20002;-76
2024/04/13 04:18:46;;;;;;;27.60;25.90;;;;;;;13.90;100.00;101963.34;5539451;25;19996;-76
2024/04/13 04:21:16;;;;;;;29.20;27.40;;;;;;;13.93;100.00;101965.63;5532258;25;20006;-84
2024/04/13 04:23:42;;;;;;;28.58;26.50;;;;;;;13.86;100.00;101973.59;5529430;25;20017;-76
2024/04/13 04:26:11;;;;;;;28.77;26.92;;;;;;;13.70;100.00;101974.72;5534982;25;20004;-83
2024/04/13 04:28:37;;;;;;;29.08;27.27;;;;;;;13.82;100.00;101968.84;5524126;25;20013;-84
2024/04/13 04:31:15;;;;;;;30.10;28.27;;;;;;;13.98;100.00;101979.22;5551767;25;20013;-76
2024/04/13 04:33:41;;;;;;;29.42;27.63;;;;;;;13.91;100.00;101973.81;5536882;25;20740;-76
2024/04/13 04:36:13;;;;;;;27.77;26.08;;;;;;;14.08;100.00;101974.31;5543851;25;20021;-78
2024/04/13 04:38:39;;;;;;;29.10;27.30;;;;;;;14.06;100.00;101976.34;5538489;25;19997;-78
2024/04/13 04:41:08;;;;;;;28.05;26.25;;;;;;;14.09;100.00;101975.13;5545215;25;20382;-78
2024/04/13 04:43:37;;;;;;;27.00;25.30;;;;;;;14.28;100.00;101981.59;5544365;25;20020;-78
2024/04/13 04:46:07;;;;;;;28.08;26.38;;;;;;;14.26;100.00;101979.13;5544307;25;20364;-78
2024/04/13 04:48:34;;;;;;;30.15;28.35;;;;;;;14.17;100.00;101972.31;5537462;25;20011;-78
2024/04/13 04:51:03;;;;;;;27.20;25.60;;;;;;;14.18;100.00;101989.97;5551244;25;20014;-79
2024/04/13 04:53:32;;;;;;;28.20;26.30;;;;;;;14.24;100.00;101988.34;5530592;25;20000;-79
2024/04/13 04:56:01;;;;;;;29.52;27.63;;;;;;;14.49;100.00;101984.13;5556306;25;20004;-78
2024/04/13 04:58:31;;;;;;;27.27;25.48;;;;;;;14.92;100.00;101985.69;5148338;25;9999815;-78
2024/04/13 05:01:01;;;;;;;26.10;24.40;;;;;;;14.70;100.00;101996.56;5543787;25;20009;-78
2024/04/13 05:03:27;;;;;;;24.50;22.90;;;;;;;14.87;100.00;101995.16;5545520;25;20001;-84
2024/04/13 05:06:03;;;;;;;26.10;24.50;;;;;;;14.95;100.00;101987.94;5554752;25;20001;-84
2024/04/13 05:08:29;;;;;;;26.45;24.77;;;;;;;14.92;100.00;101994.56;5536200;25;20546;-84
2024/04/13 05:11:01;;;;;;;25.88;24.33;;;;;;;14.94;100.00;101999.69;5552733;25;20004;-83
2024/04/13 05:13:30;;;;;;;26.60;24.90;;;;;;;14.89;100.00;102001.13;5550759;25;20007;-84
2024/04/13 05:15:59;;;;;;;26.73;25.13;;;;;;;15.03;100.00;101993.13;5543057;25;20005;-83
2024/04/13 05:18:25;;;;;;;26.48;24.88;;;;;;;15.02;100.00;101994.16;5523524;25;19997;-84
2024/04/13 05:20:54;;;;;;;25.77;24.15;;;;;;;15.02;100.00;101994.97;5545969;25;20002;-84
2024/04/13 05:23:20;;;;;;;27.38;25.58;;;;;;;15.18;100.00;101992.94;5535707;25;19997;-84
2024/04/13 05:25:49;;;;;;;35.45;32.38;;;;;;;15.44;100.00;101989.44;5530713;25;20433;-84
2024/04/13 05:28:20;;;;;;;28.65;25.70;;;;;;;15.28;100.00;101999.53;5556549;25;20010;-84
2024/04/13 05:30:56;;;;;;;26.17;24.58;;;;;;;15.63;100.00;101993.09;5562760;25;19996;-84
2024/04/13 05:33:23;;;;;;;24.80;23.40;;;;;;;15.60;100.00;101996.19;5560462;25;20066;-84
2024/04/13 05:35:52;;;;;;;25.80;24.30;;;;;;;15.70;100.00;101989.44;5547032;25;20016;-84
2024/04/13 05:38:18;;;;;;;26.23;24.80;;;;;;;15.89;100.00;101994.94;5560006;25;20145;-84
2024/04/13 05:40:47;;;;;;;26.60;25.00;;;;;;;15.96;100.00;101987.72;5562575;25;20005;-84
2024/04/13 05:43:13;;;;;;;26.02;24.52;;;;;;;16.11;100.00;101990.13;5544322;25;20085;-83
2024/04/13 05:45:45;;;;;;;24.85;23.45;;;;;;;16.23;100.00;101985.75;5556690;25;20080;-84
2024/04/13 05:48:11;;;;;;;29.50;27.58;;;;;;;16.27;100.00;101986.97;5559489;25;20073;-83
2024/04/13 05:50:40;;;;;;;28.23;26.52;;;;;;;16.31;100.00;101980.16;5561838;25;19996;-84
2024/04/13 05:53:08;;;;;;;27.60;26.00;;;;;;;16.34;100.00;101987.78;5548032;25;20068;-84
2024/04/13 05:55:39;;;;;;;27.15;25.55;;;;;;;16.40;100.00;101986.09;5562081;25;20378;-84
2024/04/13 05:58:08;;;;;;;28.20;26.40;;;;;;;16.50;100.00;101981.09;5553730;25;20336;-84
2024/04/13 06:00:37;;;;;;;26.55;24.95;;;;;;;16.75;100.00;101988.38;5561857;25;20758;-84
2024/04/13 06:03:06;;;;;;;27.45;25.65;;;;;;;16.95;100.00;101978.38;5558494;25;20016;-84
2024/04/13 06:05:35;;;;;;;25.48;23.98;;;;;;;17.26;100.00;101977.50;5561925;25;20561;-84
2024/04/13 06:08:02;;;;;;;24.90;23.33;;;;;;;17.49;100.00;101981.41;5559602;25;19993;-84
2024/04/13 06:10:31;;;;;;;26.60;24.92;;;;;;;17.56;100.00;101974.94;5562274;25;20116;-84
2024/04/13 06:12:58;;;;;;;26.58;24.88;;;;;;;17.68;100.00;101976.91;5559598;25;19993;-84
2024/04/13 06:15:27;;;;;;;27.00;25.20;;;;;;;17.73;100.00;101963.59;5561424;25;19997;-79
2024/04/13 06:17:53;;;;;;;25.35;23.75;;;;;;;17.75;100.00;101970.41;5550708;25;19996;-79
2024/04/13 06:20:24;;;;;;;25.13;23.50;;;;;;;18.09;100.00;101965.50;5560943;25;19997;-79
2024/04/13 06:22:54;;;;;;;24.75;23.23;;;;;;;18.17;100.00;101967.88;5558258;25;20550;-79
2024/04/13 06:25:24;;;;;;;25.65;23.92;;;;;;;18.49;100.00;101978.44;5555296;25;19992;-79
2024/04/13 06:27:50;;;;;;;26.63;24.90;;;;;;;18.85;100.00;101977.53;5558089;25;20067;-79
2024/04/13 06:30:22;;;;;;;27.77;25.88;;;;;;;18.76;100.00;101974.34;5555809;25;20008;-79
2024/04/13 06:32:48;;;;;;;25.73;24.13;;;;;;;18.79;100.00;101974.94;5545000;25;20005;-79
2024/04/13 06:35:17;;;;;;;25.80;24.00;;;;;;;18.82;100.00;101980.69;5548081;25;20008;-79
2024/04/13 06:37:47;;;;;;;26.38;24.48;;;;;;;19.30;100.00;101989.66;5559784;25;20036;-84
2024/04/13 06:40:17;;;;;;;27.55;25.75;;;;;;;19.07;100.00;101983.19;5562966;25;20015;-84
2024/04/13 06:42:43;;;;;;;26.67;24.98;;;;;;;19.34;100.00;101978.19;5560004;25;20010;-84
2024/04/13 06:45:12;;;;;;;26.10;24.38;;;;;;;19.72;100.00;101989.56;5563681;25;20005;-85
2024/04/13 06:47:38;;;;;;;27.08;25.17;;;;;;;19.66;100.00;101992.13;5561297;25;19997;-85
2024/04/13 06:50:17;;;;;;;26.60;24.80;;;;;;;19.58;100.00;101987.09;5562004;25;20001;-85
2024/04/13 06:52:47;;;;;;;26.75;24.52;;;;;;;19.66;100.00;101988.63;5560300;25;19993;-78
2024/04/13 06:55:18;;;;;;;26.73;24.73;;;;;;;19.67;100.00;101990.28;5561481;25;20084;-84
2024/04/13 06:57:44;;;;;;;25.45;23.65;;;;;;;19.85;100.00;101989.31;5554067;25;20432;-84
2024/04/13 07:00:13;;;;;;;27.05;25.15;;;;;;;19.84;100.00;101982.28;5561945;25;20138;-84
2024/04/13 07:02:41;;;;;;;26.40;24.70;;;;;;;19.87;100.00;101990.69;5559111;25;20441;-84
2024/04/13 07:05:10;;;;;;;30.10;27.95;;;;;;;20.15;100.00;101981.00;5543940;25;20361;-84
2024/04/13 07:07:42;;;;;;;30.05;28.15;;;;;;;20.23;100.00;101977.13;5557621;25;20000;-85
2024/04/13 07:10:15;;;;;;;29.48;27.27;;;;;;;20.21;100.00;101974.69;5551008;25;20072;-86
2024/04/13 07:12:41;;;;;;;29.30;27.30;;;;;;;20.35;100.00;101980.59;5560481;25;19996;-85
2024/04/13 07:15:13;;;;;;;28.33;26.42;;;;;;;20.50;100.00;101986.28;5562165;25;20000;-85
2024/04/13 07:17:39;;;;;;;27.93;25.90;;;;;;;20.52;100.00;101969.91;5554338;25;20000;-85
2024/04/13 07:20:09;;;;;;;27.30;25.40;;;;;;;20.96;100.00;101981.72;5563259;25;20357;-84
2024/04/13 07:22:35;;;;;;;28.48;26.50;;;;;;;20.92;100.00;101977.88;5560442;25;20001;-85
2024/04/13 07:25:04;;;;;;;29.13;27.23;;;;;;;21.12;100.00;101968.47;5556649;25;19997;-85
2024/04/13 07:27:33;;;;;;;29.60;27.63;;;;;;;21.31;100.00;101972.56;5546400;25;20562;-85
2024/04/13 07:30:02;;;;;;;28.92;27.02;;;;;;;21.05;100.00;101968.63;5562110;25;19997;-85
2024/04/13 07:32:28;;;;;;;30.00;28.00;;;;;;;21.32;100.00;101959.88;5559087;25;20086;-85
2024/04/13 07:34:57;;;;;;;31.33;29.23;;;;;;;21.40;100.00;101963.00;5561555;25;20011;-85
2024/04/13 07:37:24;;;;;;;28.80;26.90;;;;;;;21.48;100.00;101967.16;5558304;25;19997;-85
2024/04/13 07:39:52;;;;;;;32.58;30.38;;;;;;;21.61;100.00;101956.00;5561483;25;20382;-85
2024/04/13 07:42:19;;;;;;;33.40;31.20;;;;;;;21.47;100.00;101954.72;5559437;25;20029;-85
2024/04/13 07:44:50;;;;;;;32.42;30.33;;;;;;;21.74;100.00;101954.81;5562390;25;20029;-85
2024/04/13 07:47:17;;;;;;;33.00;30.70;;;;;;;22.18;100.00;101955.66;5559969;25;20830;-84
2024/04/13 07:49:47;;;;;;;33.15;30.95;;;;;;;22.15;100.00;101945.31;5562711;25;20279;-84
2024/04/13 07:52:13;;;;;;;32.00;29.70;;;;;;;21.87;100.00;101956.31;5559643;25;20093;-85
2024/04/13 07:54:46;;;;;;;33.22;31.05;;;;;;;21.43;100.00;101959.00;5562080;25;20072;-84
2024/04/13 07:57:12;;;;;;;31.75;29.55;;;;;;;21.88;100.00;101941.75;5559607;25;20000;-85
2024/04/13 07:59:51;;;;;;;33.10;30.80;;;;;;;21.91;100.00;101957.47;5562324;25;20076;-85
2024/04/13 08:02:19;;;;;;;32.47;30.17;;;;;;;21.70;100.00;101957.19;5560373;25;19997;-85
2024/04/13 08:04:48;;;;;;;32.00;29.73;;;;;;;22.13;100.00;101947.44;5565627;25;20068;-85
2024/04/13 08:07:15;;;;;;;32.20;29.98;;;;;;;22.04;100.00;101942.72;5563518;25;20000;-84
2024/04/13 08:09:46;;;;;;;31.65;29.45;;;;;;;21.83;100.00;101939.78;5566165;25;20016;-85
2024/04/13 08:12:18;;;;;;;33.33;30.92;;;;;;;21.98;100.00;101936.44;5563822;25;20076;-85
2024/04/13 08:14:47;;;;;;;33.38;31.08;;;;;;;21.99;100.00;101932.66;5566708;25;20012;-85
2024/04/13 08:17:16;;;;;;;30.60;28.40;;;;;;;22.45;100.00;101949.44;5555744;25;20091;-77
2024/04/13 08:19:45;;;;;;;31.42;29.23;;;;;;;22.12;100.00;101939.59;5565632;25;20003;-85
2024/04/13 08:22:14;;;;;;;33.17;30.77;;;;;;;22.54;100.00;101937.06;5563072;25;21017;-85
2024/04/13 08:24:43;;;;;;;34.80;32.20;;;;;;;22.25;100.00;101946.50;5566056;25;20389;-85
2024/04/13 08:27:10;;;;;;;32.25;29.95;;;;;;;22.29;100.00;101950.34;5563358;25;20004;-85
2024/04/13 08:29:38;;;;;;;32.35;30.05;;;;;;;22.75;100.00;101932.63;5566237;25;20310;-85
2024/04/13 08:32:05;;;;;;;31.23;29.13;;;;;;;22.67;100.00;101943.94;5563528;25;19996;-85
2024/04/13 08:34:37;;;;;;;32.97;30.67;;;;;;;23.08;100.00;101947.81;5566792;25;19997;-85
2024/04/13 08:37:03;;;;;;;32.80;30.50;;;;;;;22.88;100.00;101931.41;5563173;25;20533;-85
2024/04/13 08:39:34;;;;;;;34.10;31.70;;;;;;;23.26;100.00;101932.22;5565420;25;20008;-85
2024/04/13 08:42:08;;;;;;;33.47;31.00;;;;;;;22.95;100.00;101929.31;5563005;25;20844;-85
2024/04/13 08:44:38;;;;;;;32.20;30.00;;;;;;;22.74;100.00;101925.59;5565499;25;20369;-86
2024/04/13 08:47:05;;;;;;;35.42;32.83;;;;;;;22.96;100.00;101933.63;5562870;25;19997;-85
2024/04/13 08:49:41;;;;;;;33.95;31.55;;;;;;;22.96;100.00;101935.53;5566639;25;20003;-84
2024/04/13 08:52:08;;;;;;;33.38;31.02;;;;;;;23.45;100.00;101930.72;5563854;25;20012;-85
2024/04/13 08:54:37;;;;;;;35.13;32.42;;;;;;;24.41;99.32;101913.13;5565888;25;20875;-85
2024/04/13 08:57:06;;;;;;;33.25;30.75;;;;;;;24.47;94.33;101913.97;5525257;26;20046;-85
2024/04/13 08:59:36;;;;;;;34.33;31.90;;;;;;;23.80;94.01;101918.41;5528263;26;20033;-85
2024/04/13 09:02:12;;;;;;;35.45;32.95;;;;;;;24.20;86.92;101909.56;5550165;25;20016;-85
2024/04/13 09:05:02;;;;;;;34.00;31.50;;;;;;;24.00;85.46;101917.69;5565705;25;20000;-85
2024/04/13 09:07:32;;;;;;;34.50;32.00;;;;;;;24.36;87.12;101910.44;5562670;25;20014;-85
2024/04/13 09:10:02;;;;;;;33.78;31.38;;;;;;;24.16;96.92;101903.06;5565937;25;20011;-84
2024/04/13 09:12:30;;;;;;;33.50;31.00;;;;;;;24.74;92.44;101907.47;5562681;25;20015;-85
2024/04/13 09:15:08;;;;;;;33.95;31.38;;;;;;;24.80;73.48;101903.66;5563819;25;20437;-85
2024/04/13 09:17:35;;;;;;;32.97;30.38;;;;;;;24.40;81.42;101894.41;5556881;25;20045;-84
2024/04/13 09:20:09;;;;;;;34.72;32.22;;;;;;;24.34;90.45;101898.19;5565394;25;20702;-85
2024/04/13 09:22:37;;;;;;;34.50;31.90;;;;;;;22.62;95.52;101892.44;5562511;25;19997;-85
2024/04/13 09:25:08;;;;;;;34.70;32.10;;;;;;;23.25;100.00;101885.34;5565155;25;20011;-85
2024/04/13 09:27:34;;;;;;;33.15;30.75;;;;;;;24.43;84.81;101874.88;5562346;25;19996;-85
2024/04/13 09:30:11;;;;;;;35.13;32.63;;;;;;;24.49;85.74;101878.41;5565120;25;19997;-84
2024/04/13 09:32:39;;;;;;;35.00;32.40;;;;;;;24.29;93.35;101871.84;5562485;25;20012;-85
2024/04/13 09:35:17;;;;;;;36.00;33.40;;;;;;;24.95;84.81;101870.22;5564781;25;20709;-85
2024/04/13 09:37:43;;;;;;;34.50;32.00;;;;;;;24.89;77.28;101872.94;5561025;25;19993;-85
2024/04/13 09:40:13;;;;;;;33.35;30.75;;;;;;;24.82;85.87;101875.13;5565405;25;19996;-85
2024/04/13 09:42:39;;;;;;;32.97;30.58;;;;;;;23.94;91.93;101859.88;5561995;25;20089;-83
2024/04/13 09:45:11;;;;;;;33.90;31.40;;;;;;;24.55;82.64;101867.28;5564573;25;20019;-84
2024/04/13 09:47:39;;;;;;;33.97;31.57;;;;;;;24.39;89.39;101871.06;5561906;25;20001;-85
2024/04/13 09:50:09;;;;;;;33.95;31.45;;;;;;;24.18;91.90;101857.47;5564414;25;20000;-85
2024/04/13 09:52:42;;;;;;;32.45;30.10;;;;;;;24.54;86.88;101871.09;5561710;25;20460;-85
2024/04/13 09:55:15;;;;;;;33.58;31.17;;;;;;;25.13;81.72;101869.66;5553670;25;20001;-85
2024/04/13 09:57:46;;;;;;;31.90;29.60;;;;;;;25.09;82.97;101869.38;5526704;26;19997;-85
2024/04/13 10:00:16;;;;;;;33.38;30.92;;;;;;;25.49;77.27;101870.34;5537538;25;20352;-85
2024/04/13 10:02:45;;;;;;;35.45;32.85;;;;;;;24.26;71.42;101872.38;5563547;25;20076;-85
2024/04/13 10:05:14;;;;;;;32.13;29.73;;;;;;;24.79;75.72;101870.25;5561397;25;20014;-85
2024/04/13 10:07:54;;;;;;;42.35;39.65;;;;;;;26.02;70.48;101864.38;5564674;25;20906;-85
2024/04/13 10:10:23;;;;;;;45.35;42.50;;;;;;;26.45;67.58;101860.00;5562190;25;20820;-85
2024/04/13 10:13:02;;;;;;;38.58;35.97;;;;;;;25.83;65.87;101861.50;5564636;25;20005;-85
2024/04/13 10:15:43;;;;;;;39.10;36.40;;;;;;;25.74;79.31;101855.81;5561370;25;19997;-84
2024/04/13 10:18:18;;;;;;;36.33;33.72;;;;;;;25.83;63.14;101858.78;5548447;25;20221;-85
2024/04/13 10:20:46;;;;;;;34.28;31.65;;;;;;;24.08;92.37;101860.16;5532307;25;20016;-85
2024/04/13 10:23:19;;;;;;;36.72;34.03;;;;;;;25.25;76.95;101853.88;5552735;25;19997;-85
2024/04/13 10:25:56;;;;;;;35.28;32.67;;;;;;;25.53;71.67;101854.28;5533592;25;20609;-84
2024/04/13 10:28:25;;;;;;;35.10;32.50;;;;;;;24.61;100.00;101858.03;5525559;25;19997;-85
2024/04/13 10:30:53;;;;;;;36.13;33.33;;;;;;;26.21;82.85;101854.47;5556271;25;19996;-84
2024/04/13 10:33:23;;;;;;;34.70;32.10;;;;;;;24.66;92.37;101852.63;5545371;25;20012;-85
2024/04/13 10:35:54;;;;;;;33.75;31.25;;;;;;;24.51;97.76;101846.34;5554421;25;20432;-84
2024/04/13 10:38:27;;;;;;;37.40;34.70;;;;;;;24.94;93.47;101844.97;5563625;25;20011;-84
2024/04/13 10:40:53;;;;;;;;;;;;;;;24.77;80.34;101847.97;5558476;25;19996;-84
2024/04/13 10:43:25;;;;;;;40.47;37.47;;;;;;;25.43;80.13;101840.75;5543838;25;20144;-84
2024/04/13 10:45:52;;;;;;;41.47;38.47;;;;;;;26.71;98.71;101844.22;5536935;25;19997;-84
2024/04/13 10:48:21;;;;;;;35.03;32.40;;;;;;;27.00;87.39;101845.31;5539605;25;20004;-85
2024/04/13 10:50:49;;;;;;;70.43;66.32;;;;;;;27.07;69.86;101838.41;5559984;25;20440;-85
2024/04/13 10:53:31;;;;;;;97.68;92.57;;;;;;;27.02;65.36;101840.38;5562202;25;20524;-85
2024/04/13 10:55:58;;;;;;;42.90;39.90;;;;;;;26.80;84.79;101838.16;5556605;25;20003;-84
2024/04/13 10:58:31;;;;;;;68.68;64.68;;;;;;;24.92;88.16;101841.69;5552589;25;20016;-85
2024/04/13 11:00:57;;;;;;;78.75;74.40;;;;;;;26.28;86.51;101835.88;5532964;25;20098;-84
2024/04/13 11:03:27;;;;;;;56.50;53.00;;;;;;;27.48;81.73;101831.69;5562742;25;20075;-85
2024/04/13 11:05:56;;;;;;;36.28;33.58;;;;;;;27.06;70.05;101831.34;5544644;25;19997;-84
2024/04/13 11:08:23;;;;;;;97.60;92.57;;;;;;;27.36;67.47;101832.91;5554130;25;19997;-85
2024/04/13 11:10:56;;;;;;;87.15;82.50;;;;;;;28.13;60.90;101820.09;5543625;25;20036;-85
2024/04/13 11:13:23;;;;;;;39.35;36.60;;;;;;;28.12;75.39;101813.03;5528572;25;20012;-85